createdAt,value
2019-04-07T00:00:33.151Z,29.07
2019-04-07T00:01:42.184Z,32.80
2019-04-07T00:02:47.569Z,31.80
2019-04-07T00:03:53.193Z,31.33
2019-04-07T00:05:09.349Z,30.92
2019-04-07T00:06:05.300Z,31.60
2019-04-07T00:07:10.287Z,27.67
2019-04-07T00:08:15.128Z,34.75
2019-04-07T00:09:20.528Z,31.37
2019-04-07T00:10:25.933Z,39.15
2019-04-07T00:11:31.484Z,31.85
2019-04-07T00:12:36.107Z,30.88
2019-04-07T00:13:41.405Z,33.45
2019-04-07T00:14:46.668Z,37.05
2019-04-07T00:15:51.628Z,41.25
2019-04-07T00:16:56.881Z,33.83
2019-04-07T00:18:02.301Z,31.25
2019-04-07T00:19:08.814Z,40.88
2019-04-07T00:20:13.943Z,32.80
2019-04-07T00:21:18.549Z,34.27
2019-04-07T00:22:23.223Z,36.53
2019-04-07T00:23:28.447Z,35.60
2019-04-07T00:24:33.231Z,34.20
2019-04-07T00:25:38.968Z,35.68
2019-04-07T00:26:44.695Z,32.63
2019-04-07T00:27:49.583Z,33.55
2019-04-07T00:28:54.144Z,33.92
2019-04-07T00:30:00.013Z,30.48
2019-04-07T00:31:05.128Z,31.57
2019-04-07T00:32:09.800Z,32.85
2019-04-07T00:33:14.531Z,33.98
2019-04-07T00:34:19.244Z,31.80
2019-04-07T00:35:30.436Z,33.85
2019-04-07T00:36:30.366Z,37.38
2019-04-07T00:37:35.089Z,32.15
2019-04-07T00:38:39.783Z,28.30
2019-04-07T00:39:44.404Z,42.62
2019-04-07T00:40:49.314Z,33.80
2019-04-07T00:41:54.043Z,35.13
2019-04-07T00:42:58.658Z,35.73
2019-04-07T00:44:05.042Z,37.05
2019-04-07T00:45:09.844Z,36.05
2019-04-07T00:46:14.468Z,37.33
2019-04-07T00:47:19.559Z,33.45
2019-04-07T00:48:24.417Z,36.20
2019-04-07T00:49:29.685Z,37.25
2019-04-07T00:50:34.726Z,30.85
2019-04-07T00:51:39.531Z,31.82
2019-04-07T00:52:44.853Z,32.75
2019-04-07T00:53:49.767Z,33.90
2019-04-07T00:54:54.575Z,38.28
2019-04-07T00:55:59.478Z,34.35
2019-04-07T00:57:04.438Z,33.02
2019-04-07T00:58:09.243Z,30.85
2019-04-07T00:59:14.382Z,33.35
2019-04-07T01:00:20.355Z,32.00
2019-04-07T01:01:25.202Z,35.88
2019-04-07T01:02:29.865Z,31.02
2019-04-07T01:03:34.908Z,41.23
2019-04-07T01:04:39.736Z,37.05
2019-04-07T01:05:44.372Z,32.05
2019-04-07T01:06:49.452Z,39.05
2019-04-07T01:07:54.261Z,38.67
2019-04-07T01:08:59.144Z,38.85
2019-04-07T01:10:04.981Z,32.75
2019-04-07T01:11:09.623Z,33.18
2019-04-07T01:12:14.820Z,38.20
2019-04-07T01:13:19.837Z,33.28
2019-04-07T01:14:24.753Z,30.92
2019-04-07T01:15:29.506Z,35.68
2019-04-07T01:16:53.386Z,33.73
2019-04-07T01:17:58.119Z,35.10
2019-04-07T01:19:03.452Z,35.48
2019-04-07T01:20:09.020Z,37.35
2019-04-07T01:21:13.836Z,37.00
2019-04-07T01:22:19.609Z,37.08
2019-04-07T01:23:24.232Z,32.30
2019-04-07T01:24:28.852Z,35.23
2019-04-07T01:25:33.460Z,36.03
2019-04-07T01:26:39.340Z,30.77
2019-04-07T01:27:44.053Z,33.23
2019-04-07T01:28:48.676Z,33.05
2019-04-07T01:29:53.456Z,36.10
2019-04-07T01:30:58.032Z,33.40
2019-04-07T01:32:02.639Z,35.25
2019-04-07T01:33:07.635Z,35.03
2019-04-07T01:34:13.351Z,35.90
2019-04-07T01:35:18.120Z,34.85
2019-04-07T01:36:22.729Z,36.55
2019-04-07T01:37:27.508Z,36.93
2019-04-07T01:38:32.239Z,38.58
2019-04-07T01:39:37.301Z,35.75
2019-04-07T01:40:43.632Z,35.33
2019-04-07T01:41:54.190Z,34.13
2019-04-07T01:43:25.114Z,35.65
2019-04-07T01:44:51.880Z,34.63
2019-04-07T01:46:18.407Z,41.13
2019-04-07T01:47:42.209Z,37.65
2019-04-07T01:49:21.253Z,34.25
2019-04-07T01:50:35.542Z,37.83
2019-04-07T01:51:47.070Z,35.20
2019-04-07T01:53:07.780Z,40.28
2019-04-07T01:54:30.810Z,34.70
2019-04-07T01:55:53.302Z,35.45
2019-04-07T01:57:15.703Z,38.13
2019-04-07T01:58:47.006Z,32.33
2019-04-07T02:00:11.152Z,36.45
2019-04-07T02:01:31.224Z,39.23
2019-04-07T02:02:44.474Z,41.85
2019-04-07T02:04:10.308Z,41.70
2019-04-07T02:05:57.146Z,29.02
2019-04-07T02:07:02.967Z,39.90
2019-04-07T02:08:14.599Z,36.33
2019-04-07T02:09:37.821Z,33.95
2019-04-07T02:10:49.509Z,35.17
2019-04-07T02:12:04.791Z,34.50
2019-04-07T02:13:27.508Z,37.30
2019-04-07T02:14:54.895Z,34.50
2019-04-07T02:16:18.199Z,34.85
2019-04-07T02:17:45.564Z,36.38
2019-04-07T02:18:55.477Z,38.60
2019-04-07T02:20:11.645Z,39.65
2019-04-07T02:21:36.122Z,37.70
2019-04-07T02:22:48.666Z,37.98
2019-04-07T02:24:17.007Z,33.98
2019-04-07T02:25:35.117Z,35.70
2019-04-07T02:26:58.964Z,34.53
2019-04-07T02:28:25.575Z,39.70
2019-04-07T02:29:37.386Z,33.35
2019-04-07T02:30:58.760Z,38.75
2019-04-07T02:32:29.277Z,35.88
2019-04-07T02:33:47.430Z,48.50
2019-04-07T02:35:09.087Z,44.18
2019-04-07T02:36:25.712Z,35.20
2019-04-07T02:37:41.046Z,39.05
2019-04-07T02:39:03.523Z,31.95
2019-04-07T02:40:15.581Z,36.25
2019-04-07T02:41:42.299Z,37.53
2019-04-07T02:42:55.875Z,33.20
2019-04-07T02:44:28.063Z,35.52
2019-04-07T02:45:54.596Z,37.42
2019-04-07T02:47:09.882Z,35.30
2019-04-07T02:48:39.447Z,36.60
2019-04-07T02:50:03.377Z,32.80
2019-04-07T02:51:32.192Z,31.33
2019-04-07T02:53:05.722Z,31.95
2019-04-07T02:54:37.865Z,36.73
2019-04-07T02:56:01.841Z,34.60
2019-04-07T02:57:35.892Z,37.63
2019-04-07T02:59:12.992Z,38.63
2019-04-07T03:00:24.648Z,34.30
2019-04-07T03:01:49.726Z,34.10
2019-04-07T03:03:06.044Z,40.10
2019-04-07T03:04:17.864Z,31.20
2019-04-07T03:05:38.491Z,45.17
2019-04-07T03:06:53.579Z,39.70
2019-04-07T03:08:17.304Z,35.70
2019-04-07T03:09:29.986Z,40.58
2019-04-07T03:10:40.698Z,38.17
2019-04-07T03:12:10.717Z,38.63
2019-04-07T03:13:24.541Z,33.25
2019-04-07T03:14:52.899Z,37.23
2019-04-07T03:16:21.102Z,36.05
2019-04-07T03:17:33.444Z,37.85
2019-04-07T03:18:42.696Z,38.00
2019-04-07T03:19:56.809Z,35.03
2019-04-07T03:21:20.704Z,35.33
2019-04-07T03:22:44.493Z,36.93
2019-04-07T03:24:00.793Z,32.20
2019-04-07T03:25:24.135Z,36.98
2019-04-07T03:26:55.680Z,38.17
2019-04-07T03:28:21.433Z,34.58
2019-04-07T03:29:45.267Z,37.65
2019-04-07T03:31:10.380Z,35.68
2019-04-07T03:32:30.533Z,34.90
2019-04-07T03:34:12.443Z,58.83
2019-04-07T03:35:42.292Z,34.78
2019-04-07T03:37:15.404Z,35.75
2019-04-07T03:38:22.292Z,33.75
2019-04-07T03:39:46.093Z,36.63
2019-04-07T03:41:03.257Z,34.13
2019-04-07T03:42:26.085Z,42.10
2019-04-07T03:43:38.208Z,35.70
2019-04-07T03:44:48.978Z,34.85
2019-04-07T03:46:02.106Z,35.10
2019-04-07T03:47:12.809Z,36.05
2019-04-07T03:48:21.857Z,36.25
2019-04-07T03:49:33.586Z,36.70
2019-04-07T03:50:46.453Z,41.10
2019-04-07T03:52:16.987Z,34.38
2019-04-07T03:53:30.474Z,35.52
2019-04-07T03:54:53.065Z,37.23
2019-04-07T03:56:08.141Z,36.70
2019-04-07T03:57:22.215Z,33.75
2019-04-07T03:58:44.575Z,35.73
2019-04-07T04:00:07.110Z,41.53
2019-04-07T04:01:34.936Z,33.23
2019-04-07T04:02:59.320Z,36.58
2019-04-07T04:04:34.147Z,38.60
2019-04-07T04:06:04.719Z,46.15
2019-04-07T04:07:36.912Z,40.95
2019-04-07T04:08:51.298Z,38.10
2019-04-07T04:10:14.211Z,38.28
2019-04-07T04:11:40.773Z,39.53
2019-04-07T04:12:53.036Z,37.48
2019-04-07T04:14:06.772Z,39.78
2019-04-07T04:15:18.406Z,34.40
2019-04-07T04:16:28.837Z,34.33
2019-04-07T04:17:34.354Z,44.98
2019-04-07T04:18:39.350Z,37.15
2019-04-07T04:19:44.211Z,39.18
2019-04-07T04:20:48.826Z,41.37
2019-04-07T04:21:54.209Z,40.00
2019-04-07T04:22:59.739Z,37.23
2019-04-07T04:24:04.561Z,36.38
2019-04-07T04:25:10.526Z,33.90
2019-04-07T04:26:17.510Z,40.10
2019-04-07T04:27:22.385Z,37.38
2019-04-07T04:28:27.389Z,37.70
2019-04-07T04:29:37.488Z,42.53
2019-04-07T04:30:42.266Z,39.85
2019-04-07T04:31:47.723Z,38.55
2019-04-07T04:32:52.404Z,38.60
2019-04-07T04:33:57.959Z,47.75
2019-04-07T04:35:03.168Z,33.15
2019-04-07T04:36:08.152Z,40.12
2019-04-07T04:37:12.928Z,37.78
2019-04-07T04:38:17.794Z,53.42
2019-04-07T04:39:22.924Z,37.50
2019-04-07T04:40:29.785Z,40.98
2019-04-07T04:41:34.852Z,32.38
2019-04-07T04:42:39.571Z,43.02
2019-04-07T04:43:45.119Z,35.05
2019-04-07T04:44:51.050Z,36.45
2019-04-07T04:45:56.825Z,39.08
2019-04-07T04:47:02.769Z,39.83
2019-04-07T04:48:08.679Z,42.58
2019-04-07T04:49:13.609Z,43.23
2019-04-07T04:50:18.252Z,34.83
2019-04-07T04:51:22.893Z,35.92
2019-04-07T04:52:27.755Z,33.88
2019-04-07T04:53:33.546Z,40.17
2019-04-07T04:54:38.829Z,36.65
2019-04-07T04:55:43.920Z,34.70
2019-04-07T04:56:48.752Z,43.30
2019-04-07T04:57:53.340Z,34.92
2019-04-07T04:58:58.458Z,34.40
2019-04-07T05:00:03.872Z,35.88
2019-04-07T05:01:09.569Z,41.20
2019-04-07T05:02:14.450Z,38.55
2019-04-07T05:03:19.457Z,34.92
2019-04-07T05:04:24.345Z,35.52
2019-04-07T05:05:29.069Z,39.90
2019-04-07T05:06:33.781Z,43.87
2019-04-07T05:07:50.396Z,37.50
2019-04-07T05:08:45.708Z,36.50
2019-04-07T05:09:53.837Z,38.90
2019-04-07T05:10:56.761Z,37.40
2019-04-07T05:12:04.063Z,36.13
2019-04-07T05:13:07.729Z,45.52
2019-04-07T05:14:12.343Z,41.30
2019-04-07T05:15:17.521Z,45.50
2019-04-07T05:16:23.051Z,41.10
2019-04-07T05:17:27.811Z,39.88
2019-04-07T05:18:32.447Z,46.02
2019-04-07T05:19:37.312Z,34.58
2019-04-07T05:20:42.648Z,38.13
2019-04-07T05:21:47.547Z,35.58
2019-04-07T05:22:52.313Z,43.08
2019-04-07T05:23:56.933Z,37.85
2019-04-07T05:25:02.296Z,36.30
2019-04-07T05:26:07.100Z,41.18
2019-04-07T05:27:11.704Z,35.80
2019-04-07T05:28:16.614Z,36.10
2019-04-07T05:29:21.301Z,41.65
2019-04-07T05:30:26.000Z,35.75
2019-04-07T05:31:30.895Z,38.42
2019-04-07T05:32:35.580Z,38.33
2019-04-07T05:33:40.163Z,33.02
2019-04-07T05:34:44.736Z,38.70
2019-04-07T05:35:49.594Z,36.13
2019-04-07T05:36:54.510Z,45.55
2019-04-07T05:38:03.619Z,37.75
2019-04-07T05:39:07.594Z,34.80
2019-04-07T05:40:12.424Z,35.60
2019-04-07T05:41:17.178Z,40.05
2019-04-07T05:42:22.526Z,47.05
2019-04-07T05:43:27.369Z,44.05
2019-04-07T05:44:32.284Z,37.48
2019-04-07T05:45:37.694Z,35.35
2019-04-07T05:46:43.510Z,35.58
2019-04-07T05:47:50.314Z,35.88
2019-04-07T05:48:54.427Z,40.55
2019-04-07T05:50:00.575Z,34.50
2019-04-07T05:51:05.554Z,40.75
2019-04-07T05:52:10.240Z,38.40
2019-04-07T05:53:14.867Z,36.35
2019-04-07T05:54:20.746Z,38.78
2019-04-07T05:55:25.815Z,35.25
2019-04-07T05:56:40.355Z,41.48
2019-04-07T05:57:48.406Z,41.00
2019-04-07T05:58:56.180Z,34.60
2019-04-07T06:00:02.662Z,46.92
2019-04-07T06:01:08.272Z,40.88
2019-04-07T06:02:13.224Z,38.02
2019-04-07T06:03:18.653Z,39.08
2019-04-07T06:04:23.396Z,37.95
2019-04-07T06:05:28.157Z,40.52
2019-04-07T06:06:34.334Z,43.78
2019-04-07T06:07:39.108Z,40.40
2019-04-07T06:08:46.977Z,42.00
2019-04-07T06:09:52.594Z,38.65
2019-04-07T06:11:00.175Z,42.20
2019-04-07T06:12:06.018Z,44.63
2019-04-07T06:13:11.278Z,38.70
2019-04-07T06:14:16.702Z,37.08
2019-04-07T06:15:22.988Z,45.08
2019-04-07T06:16:27.851Z,41.05
2019-04-07T06:17:32.453Z,50.90
2019-04-07T06:18:37.091Z,37.42
2019-04-07T06:19:42.337Z,37.28
2019-04-07T06:20:47.554Z,43.58
2019-04-07T06:21:52.690Z,35.78
2019-04-07T06:22:57.584Z,42.20
2019-04-07T06:24:02.557Z,38.45
2019-04-07T06:25:07.628Z,45.20
2019-04-07T06:26:13.046Z,43.52
2019-04-07T06:27:18.722Z,36.80
2019-04-07T06:28:24.067Z,38.13
2019-04-07T06:29:30.147Z,43.70
2019-04-07T06:30:36.108Z,37.88
2019-04-07T06:31:41.521Z,39.73
2019-04-07T06:32:46.338Z,43.80
2019-04-07T06:33:51.653Z,42.23
2019-04-07T06:34:57.319Z,52.00
2019-04-07T06:36:01.960Z,40.00
2019-04-07T06:37:06.853Z,42.20
2019-04-07T06:38:12.270Z,41.65
2019-04-07T06:39:18.854Z,40.60
2019-04-07T06:40:24.166Z,37.03
2019-04-07T06:41:31.203Z,39.40
2019-04-07T06:42:35.482Z,38.28
2019-04-07T06:43:40.994Z,38.30
2019-04-07T06:44:46.038Z,46.30
2019-04-07T06:46:04.888Z,37.25
2019-04-07T06:47:19.331Z,41.88
2019-04-07T06:48:23.991Z,36.80
2019-04-07T06:49:34.913Z,37.53
2019-04-07T06:50:53.107Z,40.23
2019-04-07T06:52:13.790Z,44.03
2019-04-07T06:53:24.563Z,38.00
2019-04-07T06:54:55.074Z,44.15
2019-04-07T06:56:12.685Z,52.75
2019-04-07T06:57:28.322Z,37.73
2019-04-07T06:58:58.174Z,39.83
2019-04-07T07:00:24.446Z,37.23
2019-04-07T07:01:57.992Z,38.28
2019-04-07T07:03:20.488Z,38.05
2019-04-07T07:04:43.587Z,39.30
2019-04-07T07:06:04.763Z,44.48
2019-04-07T07:07:20.599Z,38.10
2019-04-07T07:08:59.667Z,36.93
2019-04-07T07:10:30.126Z,37.08
2019-04-07T07:11:51.147Z,34.23
2019-04-07T07:13:27.067Z,48.58
2019-04-07T07:14:43.699Z,38.02
2019-04-07T07:15:57.246Z,40.55
2019-04-07T07:17:28.014Z,38.35
2019-04-07T07:18:58.186Z,33.63
2019-04-07T07:20:27.578Z,42.95
2019-04-07T07:21:50.068Z,45.15
2019-04-07T07:23:00.689Z,37.38
2019-04-07T07:24:05.910Z,34.60
2019-04-07T07:25:12.170Z,37.58
2019-04-07T07:26:18.100Z,37.15
2019-04-07T07:27:25.124Z,38.67
2019-04-07T07:28:30.620Z,34.38
2019-04-07T07:29:35.334Z,32.15
2019-04-07T07:30:40.456Z,34.95
2019-04-07T07:31:45.283Z,40.45
2019-04-07T07:32:50.579Z,37.67
2019-04-07T07:33:56.053Z,39.15
2019-04-07T07:35:00.835Z,38.50
2019-04-07T07:36:05.523Z,31.20
2019-04-07T07:37:10.612Z,33.73
2019-04-07T07:38:15.388Z,32.08
2019-04-07T07:39:22.805Z,37.88
2019-04-07T07:40:26.371Z,37.30
2019-04-07T07:41:31.259Z,38.42
2019-04-07T07:42:36.572Z,32.03
2019-04-07T07:43:41.504Z,41.08
2019-04-07T07:44:47.072Z,36.65
2019-04-07T07:45:55.554Z,37.88
2019-04-07T07:47:00.475Z,40.75
2019-04-07T07:48:06.533Z,36.33
2019-04-07T07:49:11.570Z,39.73
2019-04-07T07:50:16.531Z,38.45
2019-04-07T07:51:21.452Z,36.60
2019-04-07T07:52:26.093Z,34.98
2019-04-07T07:53:30.729Z,36.50
2019-04-07T07:54:35.380Z,33.83
2019-04-07T07:55:40.166Z,35.95
2019-04-07T07:56:48.583Z,46.77
2019-04-07T07:57:55.461Z,38.38
2019-04-07T07:58:59.900Z,57.03
2019-04-07T08:00:06.946Z,54.20
2019-04-07T08:01:13.650Z,40.73
2019-04-07T08:02:19.685Z,34.55
2019-04-07T08:03:24.010Z,32.20
2019-04-07T08:04:29.150Z,34.85
2019-04-07T08:05:34.671Z,34.88
2019-04-07T08:06:41.044Z,50.67
2019-04-07T08:07:48.339Z,37.85
2019-04-07T08:08:52.610Z,42.45
2019-04-07T08:09:58.071Z,33.75
2019-04-07T08:11:02.827Z,36.75
2019-04-07T08:12:07.506Z,35.63
2019-04-07T08:13:12.212Z,30.88
2019-04-07T08:14:19.890Z,33.05
2019-04-07T08:15:29.701Z,33.08
2019-04-07T08:16:31.518Z,31.37
2019-04-07T08:17:36.568Z,33.65
2019-04-07T08:18:44.450Z,30.75
2019-04-07T08:19:47.812Z,43.83
2019-04-07T08:20:52.439Z,32.10
2019-04-07T08:21:58.433Z,31.57
2019-04-07T08:23:03.661Z,33.00
2019-04-07T08:24:09.020Z,35.35
2019-04-07T08:25:14.209Z,36.20
2019-04-07T08:26:19.432Z,34.20
2019-04-07T08:27:29.896Z,34.20
2019-04-07T08:28:36.125Z,30.97
2019-04-07T08:29:41.494Z,30.55
2019-04-07T08:30:47.538Z,34.13
2019-04-07T08:31:55.183Z,34.83
2019-04-07T08:33:00.420Z,33.35
2019-04-07T08:34:05.245Z,32.45
2019-04-07T08:35:10.016Z,32.08
2019-04-07T08:36:14.995Z,31.42
2019-04-07T08:37:21.905Z,31.60
2019-04-07T08:38:28.343Z,31.73
2019-04-07T08:39:36.034Z,31.60
2019-04-07T08:40:40.364Z,35.95
2019-04-07T08:41:45.890Z,34.18
2019-04-07T08:42:50.979Z,34.10
2019-04-07T08:43:57.787Z,30.55
2019-04-07T08:45:03.287Z,27.02
2019-04-07T08:46:08.815Z,31.62
2019-04-07T08:47:19.119Z,33.75
2019-04-07T08:48:20.876Z,35.45
2019-04-07T08:49:26.540Z,32.00
2019-04-07T08:50:32.107Z,34.18
2019-04-07T08:51:46.700Z,38.00
2019-04-07T08:52:52.154Z,30.68
2019-04-07T08:53:57.457Z,34.03
2019-04-07T08:55:02.983Z,30.60
2019-04-07T08:56:14.071Z,33.70
2019-04-07T08:57:18.722Z,31.33
2019-04-07T08:58:27.278Z,31.80
2019-04-07T08:59:30.293Z,29.35
2019-04-07T09:00:38.326Z,29.07
2019-04-07T09:01:43.462Z,26.30
2019-04-07T09:03:01.100Z,27.87
2019-04-07T09:03:54.576Z,33.08
2019-04-07T09:04:59.197Z,27.85
2019-04-07T09:06:04.643Z,27.25
2019-04-07T09:07:10.441Z,31.30
2019-04-07T09:08:16.005Z,29.35
2019-04-07T09:09:31.345Z,29.32
2019-04-07T09:10:33.531Z,29.30
2019-04-07T09:11:40.379Z,28.38
2019-04-07T09:12:45.101Z,29.70
2019-04-07T09:13:52.972Z,25.68
2019-04-07T09:15:03.697Z,24.72
2019-04-07T09:16:25.901Z,29.35
2019-04-07T09:17:43.659Z,36.23
2019-04-07T09:19:04.919Z,25.17
2019-04-07T09:20:19.144Z,25.92
2019-04-07T09:21:38.859Z,24.52
2019-04-07T09:22:53.259Z,24.18
2019-04-07T09:24:08.263Z,26.60
2019-04-07T09:25:26.148Z,24.45
2019-04-07T09:26:40.597Z,28.92
2019-04-07T09:28:06.368Z,26.68
2019-04-07T09:29:18.210Z,26.07
2019-04-07T09:30:40.844Z,31.73
2019-04-07T09:31:55.308Z,29.30
2019-04-07T09:33:34.649Z,33.10
2019-04-07T09:34:59.676Z,25.97
2019-04-07T09:36:22.381Z,26.30
2019-04-07T09:37:36.706Z,24.57
2019-04-07T09:39:01.810Z,28.98
2019-04-07T09:40:16.440Z,28.25
2019-04-07T09:41:35.387Z,25.52
2019-04-07T09:42:51.932Z,23.95
2019-04-07T09:44:14.433Z,23.22
2019-04-07T09:45:47.956Z,31.73
2019-04-07T09:47:06.402Z,26.25
2019-04-07T09:48:42.988Z,28.87
2019-04-07T09:50:06.800Z,29.50
2019-04-07T09:51:40.248Z,30.20
2019-04-07T09:53:01.236Z,25.17
2019-04-07T09:54:46.021Z,29.75
2019-04-07T09:56:11.706Z,24.80
2019-04-07T09:57:21.189Z,24.45
2019-04-07T09:58:45.526Z,25.77
2019-04-07T10:00:11.677Z,23.87
2019-04-07T10:01:27.636Z,26.42
2019-04-07T10:02:55.716Z,34.75
2019-04-07T10:04:13.410Z,29.40
2019-04-07T10:05:32.480Z,21.37
2019-04-07T10:07:02.628Z,27.25
2019-04-07T10:08:18.941Z,29.85
2019-04-07T10:09:45.868Z,25.10
2019-04-07T10:11:16.066Z,27.45
2019-04-07T10:12:35.042Z,30.72
2019-04-07T10:14:03.325Z,51.25
2019-04-07T10:15:33.806Z,21.93
2019-04-07T10:16:50.676Z,41.35
2019-04-07T10:18:07.676Z,52.65
2019-04-07T10:19:33.966Z,27.73
2019-04-07T10:20:55.953Z,25.92
2019-04-07T10:22:08.540Z,44.95
2019-04-07T10:23:19.651Z,19.98
2019-04-07T10:24:43.429Z,22.05
2019-04-07T10:26:06.138Z,26.37
2019-04-07T10:27:29.598Z,25.20
2019-04-07T10:28:41.662Z,29.92
2019-04-07T10:30:01.216Z,18.37
2019-04-07T10:31:24.597Z,23.05
2019-04-07T10:32:44.112Z,24.30
2019-04-07T10:34:08.086Z,24.00
2019-04-07T10:35:33.532Z,23.73
2019-04-07T10:36:55.757Z,24.90
2019-04-07T10:38:07.514Z,23.52
2019-04-07T10:39:20.899Z,22.60
2019-04-07T10:40:34.658Z,27.77
2019-04-07T10:41:56.184Z,42.93
2019-04-07T10:43:08.469Z,36.83
2019-04-07T10:44:25.977Z,31.77
2019-04-07T10:45:39.359Z,26.80
2019-04-07T10:47:07.372Z,22.98
2019-04-07T10:48:24.518Z,23.25
2019-04-07T10:50:05.197Z,28.70
2019-04-07T10:51:24.213Z,24.18
2019-04-07T10:52:46.986Z,28.30
2019-04-07T10:53:58.900Z,24.57
2019-04-07T10:55:22.783Z,22.73
2019-04-07T10:56:45.192Z,24.40
2019-04-07T10:58:09.073Z,22.25
2019-04-07T10:59:39.134Z,29.85
2019-04-07T11:00:54.920Z,25.65
2019-04-07T11:02:22.597Z,44.20
2019-04-07T11:03:44.321Z,28.35
2019-04-07T11:04:59.659Z,22.77
2019-04-07T11:06:30.491Z,24.60
2019-04-07T11:07:53.710Z,22.00
2019-04-07T11:09:13.279Z,82.72
2019-04-07T11:10:34.282Z,22.60
2019-04-07T11:11:47.046Z,20.12
2019-04-07T11:13:12.491Z,22.93
2019-04-07T11:14:28.343Z,77.15
2019-04-07T11:15:40.953Z,21.93
2019-04-07T11:17:03.640Z,22.42
2019-04-07T11:18:42.875Z,20.43
2019-04-07T11:20:03.673Z,23.98
2019-04-07T11:21:22.712Z,26.42
2019-04-07T11:22:45.302Z,25.65
2019-04-07T11:24:15.451Z,21.30
2019-04-07T11:25:46.091Z,18.57
2019-04-07T11:27:05.250Z,20.23
2019-04-07T11:28:48.050Z,23.25
2019-04-07T11:30:05.130Z,22.87
2019-04-07T11:31:17.811Z,24.25
2019-04-07T11:32:46.150Z,33.85
2019-04-07T11:34:08.865Z,24.77
2019-04-07T11:35:18.733Z,24.95
2019-04-07T11:36:31.587Z,21.73
2019-04-07T11:37:48.473Z,28.92
2019-04-07T11:39:17.878Z,26.33
2019-04-07T11:40:45.247Z,26.95
2019-04-07T11:42:27.481Z,25.77
2019-04-07T11:43:42.446Z,24.98
2019-04-07T11:45:08.211Z,23.07
2019-04-07T11:46:30.567Z,25.60
2019-04-07T11:47:48.075Z,20.60
2019-04-07T11:49:09.409Z,20.60
2019-04-07T11:50:31.009Z,24.30
2019-04-07T11:51:53.580Z,21.30
2019-04-07T11:53:09.086Z,22.22
2019-04-07T11:54:24.108Z,27.55
2019-04-07T11:55:47.458Z,22.75
2019-04-07T11:57:00.935Z,26.73
2019-04-07T11:58:30.848Z,23.45
2019-04-07T11:59:37.975Z,21.15
2019-04-07T12:00:59.686Z,23.90
2019-04-07T12:02:22.866Z,24.32
2019-04-07T12:03:43.213Z,22.45
2019-04-07T12:04:59.920Z,23.30
2019-04-07T12:06:24.050Z,25.17
2019-04-07T12:07:53.897Z,25.88
2019-04-07T12:09:13.914Z,19.57
2019-04-07T12:10:36.193Z,25.95
2019-04-07T12:12:04.786Z,21.20
2019-04-07T12:13:27.508Z,24.70
2019-04-07T12:14:49.422Z,23.47
2019-04-07T12:16:10.954Z,24.12
2019-04-07T12:17:42.038Z,20.75
2019-04-07T12:19:00.927Z,19.12
2019-04-07T12:20:25.705Z,19.62
2019-04-07T12:21:58.223Z,20.48
2019-04-07T12:23:34.235Z,23.92
2019-04-07T12:24:59.990Z,20.97
2019-04-07T12:26:20.528Z,26.97
2019-04-07T12:27:35.966Z,21.40
2019-04-07T12:28:58.636Z,22.65
2019-04-07T12:30:15.589Z,21.20
2019-04-07T12:31:40.397Z,23.32
2019-04-07T12:32:56.581Z,22.55
2019-04-07T12:34:17.853Z,19.15
2019-04-07T12:35:50.937Z,21.82
2019-04-07T12:37:24.905Z,19.10
2019-04-07T12:38:43.205Z,18.82
2019-04-07T12:39:54.372Z,17.15
2019-04-07T12:41:17.138Z,24.32
2019-04-07T12:42:35.716Z,26.55
2019-04-07T12:43:51.579Z,25.68
2019-04-07T12:45:15.356Z,19.90
2019-04-07T12:46:37.710Z,18.02
2019-04-07T12:47:54.778Z,21.17
2019-04-07T12:49:09.384Z,20.50
2019-04-07T12:50:48.897Z,28.23
2019-04-07T12:52:08.569Z,25.55
2019-04-07T12:53:26.887Z,23.15
2019-04-07T12:54:53.621Z,20.77
2019-04-07T12:56:11.813Z,21.87
2019-04-07T12:57:36.822Z,21.73
2019-04-07T12:59:06.829Z,20.40
2019-04-07T13:00:22.621Z,20.35
2019-04-07T13:01:48.527Z,21.15
2019-04-07T13:03:16.899Z,20.65
2019-04-07T13:04:40.738Z,17.60
2019-04-07T13:05:59.109Z,18.98
2019-04-07T13:07:17.070Z,20.27
2019-04-07T13:08:37.187Z,20.20
2019-04-07T13:10:13.022Z,28.73
2019-04-07T13:11:31.255Z,29.55
2019-04-07T13:12:39.512Z,19.20
2019-04-07T13:13:54.190Z,18.55
2019-04-07T13:15:11.932Z,20.02
2019-04-07T13:16:44.100Z,24.00
2019-04-07T13:18:12.081Z,22.02
2019-04-07T13:19:32.106Z,21.70
2019-04-07T13:20:55.178Z,25.97
2019-04-07T13:22:18.306Z,27.13
2019-04-07T13:23:48.201Z,20.35
2019-04-07T13:25:18.682Z,21.60
2019-04-07T13:26:40.091Z,26.62
2019-04-07T13:28:04.236Z,21.35
2019-04-07T13:29:27.002Z,25.05
2019-04-07T13:30:56.714Z,21.15
2019-04-07T13:32:07.733Z,21.20
2019-04-07T13:33:28.387Z,19.20
2019-04-07T13:34:49.882Z,24.45
2019-04-07T13:36:10.539Z,18.65
2019-04-07T13:37:26.507Z,22.67
2019-04-07T13:38:45.832Z,19.98
2019-04-07T13:39:56.717Z,21.10
2019-04-07T13:41:20.228Z,21.12
2019-04-07T13:43:01.907Z,19.05
2019-04-07T13:44:23.641Z,19.95
2019-04-07T13:45:37.934Z,18.57
2019-04-07T13:47:07.237Z,19.67
2019-04-07T13:48:28.986Z,24.12
2019-04-07T13:49:42.250Z,27.15
2019-04-07T13:51:24.196Z,20.32
2019-04-07T13:52:35.136Z,21.07
2019-04-07T13:54:08.064Z,19.07
2019-04-07T13:55:24.107Z,23.45
2019-04-07T13:56:49.892Z,21.35
2019-04-07T13:58:00.672Z,25.30
2019-04-07T13:59:23.656Z,24.50
2019-04-07T14:00:57.347Z,21.23
2019-04-07T14:02:15.315Z,21.00
2019-04-07T14:03:31.309Z,21.97
2019-04-07T14:04:44.485Z,22.90
2019-04-07T14:06:14.480Z,24.65
2019-04-07T14:07:35.324Z,23.85
2019-04-07T14:08:49.483Z,19.62
2019-04-07T14:10:12.499Z,22.48
2019-04-07T14:11:31.189Z,16.27
2019-04-07T14:12:55.605Z,18.80
2019-04-07T14:14:10.100Z,22.35
2019-04-07T14:15:21.617Z,19.27
2019-04-07T14:16:48.696Z,23.70
2019-04-07T14:18:16.608Z,22.45
2019-04-07T14:19:39.788Z,18.62
2019-04-07T14:20:55.161Z,19.10
2019-04-07T14:22:22.000Z,21.48
2019-04-07T14:23:59.374Z,17.98
2019-04-07T14:25:15.530Z,18.98
2019-04-07T14:26:29.521Z,19.87
2019-04-07T14:27:54.796Z,18.07
2019-04-07T14:29:18.455Z,16.97
2019-04-07T14:30:41.478Z,22.80
2019-04-07T14:32:05.692Z,21.52
2019-04-07T14:33:45.242Z,18.37
2019-04-07T14:35:00.980Z,15.23
2019-04-07T14:36:30.001Z,16.75
2019-04-07T14:37:40.907Z,19.90
2019-04-07T14:38:57.522Z,17.60
2019-04-07T14:40:17.285Z,18.40
2019-04-07T14:41:47.253Z,18.67
2019-04-07T14:42:59.406Z,21.50
2019-04-07T14:44:24.731Z,18.95
2019-04-07T14:45:41.706Z,20.52
2019-04-07T14:47:05.501Z,15.78
2019-04-07T14:48:22.452Z,17.48
2019-04-07T14:49:39.798Z,18.48
2019-04-07T14:51:02.490Z,18.50
2019-04-07T14:52:32.868Z,20.45
2019-04-07T14:53:58.820Z,16.93
2019-04-07T14:55:22.622Z,16.05
2019-04-07T14:56:50.905Z,20.05
2019-04-07T14:58:17.483Z,20.35
2019-04-07T14:59:39.509Z,18.55
2019-04-07T15:00:59.188Z,17.10
2019-04-07T15:02:02.229Z,17.80
2019-04-07T15:03:07.333Z,15.80
2019-04-07T15:04:12.899Z,16.95
2019-04-07T15:05:28.797Z,16.45
2019-04-07T15:06:34.912Z,21.55
2019-04-07T15:08:04.379Z,16.02
2019-04-07T15:09:15.277Z,14.10
2019-04-07T15:10:26.417Z,16.35
2019-04-07T15:11:36.826Z,16.75
2019-04-07T15:12:45.711Z,14.43
2019-04-07T15:13:50.593Z,16.85
2019-04-07T15:14:55.688Z,16.87
2019-04-07T15:16:00.704Z,17.73
2019-04-07T15:17:07.791Z,20.50
2019-04-07T15:18:12.802Z,24.05
2019-04-07T15:19:17.848Z,15.25
2019-04-07T15:20:27.059Z,17.12
2019-04-07T15:21:33.063Z,20.35
2019-04-07T15:22:39.050Z,14.50
2019-04-07T15:23:46.824Z,19.12
2019-04-07T15:24:51.595Z,16.52
2019-04-07T15:25:56.819Z,18.60
2019-04-07T15:27:01.574Z,16.95
2019-04-07T15:28:06.922Z,23.20
2019-04-07T15:29:12.587Z,17.37
2019-04-07T15:30:18.444Z,16.65
2019-04-07T15:31:23.176Z,15.55
2019-04-07T15:32:29.790Z,15.90
2019-04-07T15:33:35.022Z,13.90
2019-04-07T15:34:42.303Z,16.62
2019-04-07T15:35:49.075Z,13.95
2019-04-07T15:36:52.481Z,18.17
2019-04-07T15:37:57.146Z,19.62
2019-04-07T15:39:01.841Z,16.55
2019-04-07T15:40:08.653Z,18.02
2019-04-07T15:41:16.957Z,20.72
2019-04-07T15:42:33.108Z,16.48
2019-04-07T15:43:27.821Z,18.95
2019-04-07T15:44:32.617Z,16.25
2019-04-07T15:45:39.697Z,19.12
2019-04-07T15:46:49.034Z,20.40
2019-04-07T15:47:52.944Z,17.45
2019-04-07T15:48:57.008Z,13.05
2019-04-07T15:50:02.796Z,16.87
2019-04-07T15:51:08.024Z,19.27
2019-04-07T15:52:13.139Z,15.58